Flight Track Log - Related Links

Times and Time Zones

All times are in EDT time to prevent confusion due to time zone crossing. See the UPS1143 flight status page for this flight to view local times or setup timezone preferences in your user account.

Time Position Orientation Groundspeed Altitude Reporting Facility
EDT Latitude Longitude Course Direction KTS MPH feet Rate Location/Type
11:21PM 42.9588 -78.6745 96° East 148 170 3,700  Level FlightAware ADS-B (CYYZ)
11:22PM 42.9488 -78.6566 156° South 178 205 4,200 1,556 Climbing FlightAware ADS-B (CYYZ)
11:22PM 42.9479 -78.6562 164° South 186 214 4,400 1,800 Climbing FlightAware ADS-B (CYYZ)
11:22PM 42.9431 -78.6543 169° South 190 219 4,500 1,000 Climbing FlightAware ADS-B (CYYZ)
11:22PM 42.9395 -78.6537 176° South 195 224 4,500 1,800 Level FlightAware ADS-B (CYYZ)
11:22PM 42.9305 -78.6546 187° South 204 235 4,800 2,143 Climbing FlightAware ADS-B (CYYZ)
11:22PM 42.9256 -78.6560 193° South 216 249 5,000 1,800 Climbing FlightAware ADS-B (CYYZ)
11:22PM 42.9214 -78.6576 190° South 207 238 5,100 1,200 Climbing FlightAware ADS-B (EPLB / LUZ)
11:22PM 42.9164 -78.6601 201° Southwest 236 272 5,200 1,200 Climbing FlightAware ADS-B (CYYZ)
11:22PM 42.9124 -78.6620 211° Southwest 248 285 5,300 1,800 Climbing FlightAware ADS-B (CYYZ)
11:22PM 42.9056 -78.6690 218° Southwest 258 297 5,500 1,800 Climbing FlightAware ADS-B (CYYZ)
11:22PM 42.9015 -78.6735 225° Southwest 267 307 5,600 2,857 Climbing FlightAware ADS-B (CYYZ)
11:23PM 42.8883 -78.6921 227° Southwest 272 313 6,500 4,571 Climbing FlightAware ADS-B (CYYZ)
11:23PM 42.8835 -78.6996 227° Southwest 274 315 7,200 4,286 Climbing FlightAware ADS-B (EPLB / LUZ)
11:23PM 42.8758 -78.7110 228° Southwest 272 313 7,500 3,250 Climbing FlightAware ADS-B (CYYZ)
11:23PM 42.8616 -78.7308 225° Southwest 275 316 8,500 4,000 Climbing FlightAware ADS-B (CYYZ)
11:23PM 42.8478 -78.7488 224° Southwest 276 318 9,500 3,300 Climbing FlightAware ADS-B (CYYZ)
11:24PM 42.8383 -78.7609 223° Southwest 281 323 10,700 2,333 Climbing FlightAware ADS-B (EPLB / LUZ)
11:24PM 42.8142 -78.7917 224° Southwest 311 358 10,900 1,500 Climbing FlightAware ADS-B (CYYZ)
11:25PM 42.7802 -78.8365 225° Southwest 350 403 11,700 1,700 Climbing FlightAware ADS-B (CYYZ)
11:25PM 42.7440 -78.8834 225° Southwest 376 433 12,600 2,500 Climbing FlightAware ADS-B (CYYZ)
11:26PM 42.7061 -78.9336 225° Southwest 386 444 14,200 3,153 Climbing FlightAware ADS-B (CYYZ)
11:26PM 42.6684 -78.9828 224° Southwest 390 449 15,700 2,800 Climbing FlightAware ADS-B (CYYZ)
11:27PM 42.6269 -79.0362 224° Southwest 402 463 17,000 2,459 Climbing FlightAware ADS-B (CYYZ)
11:27PM 42.5864 -79.0893 224° Southwest 412 474 18,200 2,500 Climbing FlightAware ADS-B (CYYZ)
11:28PM 42.5440 -79.1450 224° Southwest 416 479 19,500 2,644 Climbing FlightAware ADS-B (CYYZ)
11:28PM 42.5019 -79.1992 224° Southwest 420 483 20,800 2,400 Climbing FlightAware ADS-B (CYYZ)
11:29PM 42.4604 -79.2526 224° Southwest 427 491 21,900 1,967 Climbing FlightAware ADS-B (CYYZ)
11:29PM 42.4157 -79.3105 224° Southwest 437 503 22,800 1,900 Climbing FlightAware ADS-B (CYYZ)
11:30PM 42.3765 -79.3597 224° Southwest 442 509 23,800 2,455 Climbing FlightAware ADS-B (CYYZ)
11:30PM 42.3496 -79.3943 224° Southwest 446 513 24,600 2,200 Climbing FlightAware ADS-B (EPLB / LUZ)
11:30PM 42.3285 -79.4211 224° Southwest 447 514 24,900 1,435 Climbing FlightAware ADS-B (CYYZ)
11:31PM 42.2815 -79.4814 224° Southwest 452 520 25,700 1,784 Climbing FlightAware ADS-B (CYYZ)
11:31PM 42.2717 -79.4948 224° Southwest 453 521 26,000 1,862 Climbing FlightAware ADS-B (EPLB / LUZ)
11:31PM 42.2393 -79.5358 224° Southwest 456 525 26,600 1,600 Climbing FlightAware ADS-B (CYYZ)
11:31PM 42.2022 -79.5832 224° Southwest 462 532 27,200 1,600 Climbing FlightAware ADS-B (EPLB / LUZ)
11:32PM 42.1892 -79.5991 224° Southwest 463 533 27,400 1,846 Climbing FlightAware ADS-B (CYYZ)
11:32PM 42.1428 -79.6586 224° Southwest 461 531 28,400 2,200 Climbing FlightAware ADS-B (CYYZ)
11:33PM 42.0964 -79.7172 224° Southwest 454 522 29,600 2,318 Climbing FlightAware ADS-B (CYYZ)
11:33PM 42.0747 -79.7463 223° Southwest 454 522 30,100 2,000 Climbing FlightAware ADS-B (EPLB / LUZ)
11:33PM 42.0505 -79.7770 224° Southwest 450 518 30,600 1,867 Climbing FlightAware ADS-B (CYYZ)
11:34PM 42.0066 -79.8323 224° Southwest 447 514 31,500 1,900 Climbing FlightAware ADS-B (CYYZ)
11:34PM 41.9615 -79.8892 224° Southwest 441 507 32,500 1,364 Climbing FlightAware ADS-B (CYYZ)
11:35PM 41.9093 -79.9546 224° Southwest 440 506 33,000 1,292 Climbing FlightAware ADS-B (CYYZ)
11:35PM 41.8641 -80.0119 224° Southwest 433 498 33,900 857 Climbing FlightAware ADS-B (CYYZ)
11:36PM 41.8069 -80.0821 224° Southwest 436 502 34,000 86 Climbing FlightAware ADS-B (CYYZ)
11:36PM 41.7614 -80.1392 224° Southwest 432 497 34,000  Level FlightAware ADS-B (CYYZ)
11:37PM 41.7394 -80.1665 224° Southwest 431 496 34,000  Level FlightAware ADS-B (CYYZ)
11:37PM 41.6776 -80.2443 224° Southwest 426 490 34,000  Level FlightAware ADS-B (CYYZ)
11:38PM 41.6383 -80.2928 223° Southwest 425 489 34,000  Level FlightAware ADS-B (CYYZ)
11:38PM 41.6100 -80.3285 223° Southwest 423 487 34,000  Level FlightAware ADS-B (CYYZ)
11:39PM 41.5454 -80.4086 223° Southwest 421 484 34,000  Level FlightAware ADS-B (CYYZ)
11:39PM 41.5017 -80.4634 223° Southwest 420 483 34,000  Level FlightAware ADS-B (CYYZ)
11:40PM 41.4607 -80.5129 223° Southwest 421 484 34,000  Level FlightAware ADS-B (CYYZ)
11:40PM 41.4277 -80.5534 223° Southwest 421 484 34,000  Level FlightAware ADS-B (EPLB / LUZ)
11:40PM 41.4181 -80.5657 223° Southwest 421 484 34,000  Level FlightAware ADS-B (CYYZ)
11:41PM 41.3738 -80.6202 223° Southwest 421 484 34,000  Level FlightAware ADS-B (CYYZ)
11:41PM 41.3325 -80.6714 223° Southwest 423 487 34,000  Level FlightAware ADS-B (CYYZ)
11:42PM 41.2581 -80.7745 234° Southwest 424 488 34,000  Level FlightAware ADS-B (CYYZ)
11:43PM 41.2143 -80.8540 235° Southwest 410 472 34,000  Level FlightAware ADS-B (CYYZ)
11:44PM 41.1656 -80.9451 235° Southwest 405 466 34,000  Level FlightAware ADS-B (EPLB / LUZ)
11:45PM 41.0995 -81.0688 235° Southwest 411 473 34,000  Level FlightAware ADS-B (CYYZ)
11:45PM 41.0805 -81.1036 234° Southwest 412 474 34,000  Level FlightAware ADS-B (EPLB / LUZ)
11:45PM 41.0637 -81.1345 235° Southwest 413 475 34,000  Level FlightAware ADS-B (CYYZ)
11:46PM 41.0340 -81.1900 234° Southwest 414 476 34,000  Level FlightAware ADS-B (EPLB / LUZ)
11:46PM 41.0104 -81.2331 235° Southwest 412 474 34,000  Level FlightAware ADS-B (CYYZ)
11:46PM 40.9823 -81.2844 234° Southwest 415 478 34,000  Level FlightAware ADS-B (EPLB / LUZ)
11:47PM 40.9949 -81.2618 235° Southwest 412 474 34,000  Level FlightAware ADS-B (CYYZ)
11:47PM 40.9514 -81.3401 234° Southwest 422 486 34,000  Level FlightAware ADS-B (EPLB / LUZ)
11:47PM 40.9289 -81.3821 235° Southwest 422 486 34,000  Level FlightAware ADS-B (CYYZ)
11:48PM 40.9011 -81.4323 235° Southwest 423 487 34,000  Level FlightAware ADS-B (CYYZ)
11:48PM 40.8889 -81.4554 234° Southwest 424 488 34,000  Level FlightAware ADS-B (EPLB / LUZ)
11:48PM 40.8602 -81.5077 235° Southwest 423 487 34,000  Level FlightAware ADS-B (CYYZ)
11:48PM 40.8390 -81.5453 235° Southwest 422 486 34,000  Level FlightAware ADS-B (CYYZ)
11:49PM 40.8077 -81.6040 234° Southwest 428 493 34,000  Level FlightAware ADS-B (EPLB / LUZ)
11:50PM 40.7562 -81.6973 235° Southwest 427 491 34,000  Level FlightAware ADS-B (CYYZ)
11:50PM 40.7218 -81.7602 235° Southwest 426 490 34,000  Level FlightAware ADS-B (CYYZ)
11:50PM 40.7101 -81.7813 234° Southwest 425 489 34,000  Level FlightAware ADS-B (CYYZ)
11:51PM 40.6620 -81.8668 234° Southwest 425 489 34,000  Level FlightAware ADS-B (CYYZ)
11:52PM 40.5793 -82.0157 234° Southwest 441 507 34,000  Level FlightAware ADS-B (EPLB / LUZ)
11:53PM 40.5236 -82.1161 234° Southwest 434 499 34,000  Level Indianapolis Center
11:54PM 40.4528 -82.2467 235° Southwest 436 502 34,000  Level Indianapolis Center
11:55PM 40.3806 -82.3717 233° Southwest 431 496 34,000  Level Indianapolis Center
11:56PM 40.3094 -82.4989 234° Southwest 431 496 34,000  Level Indianapolis Center
11:57PM 40.2389 -82.6228 233° Southwest 416 479 34,000  Level Indianapolis Center
11:58PM 40.1714 -82.7392 233° Southwest 407 468 34,000  Level Indianapolis Center
11:59PM 40.1047 -82.8569 234° Southwest 407 468 34,000  Level Indianapolis Center
12:00AM 40.0378 -82.9739 233° Southwest 406 467 34,000 -640 Level Indianapolis Center
12:05AM 39.5648 -83.3811 210° Southwest 402 463 30,000 -690 Descending FlightAware ADS-B
12:06AM 39.4956 -83.4532 234° Southwest 408 470 30,000  Level FlightAware ADS-B
12:06AM 39.4664 -83.5220 244° Southwest 412 474 30,000  Level FlightAware ADS-B
12:07AM 39.4321 -83.6125 244° Southwest 410 472 30,000  Level FlightAware ADS-B
12:08AM 39.3976 -83.7031 245° Southwest 413 475 30,000  Level FlightAware ADS-B
12:09AM 39.3879 -83.8369 272° West 437 503 30,000  Level FlightAware ADS-B
12:10AM 39.3890 -83.8812 272° West 436 502 30,000  Level FlightAware ADS-B
12:10AM 39.3945 -84.0580 272° West 434 499 30,000  Level FlightAware ADS-B
12:11AM 39.3984 -84.1694 273° West 434 499 30,000  Level FlightAware ADS-B
12:11AM 39.4023 -84.2596 273° West 433 498 30,000  Level FlightAware ADS-B
12:13AM 39.4147 -84.5293 273° West 434 499 30,000  Level FlightAware ADS-B
12:14AM 39.4147 -84.5293 263° West 428 493 30,000  Level FlightAware ADS-B
12:15AM 39.4289 -84.8567 263° West 433 498 30,000 -884 Level Indianapolis Center
12:20AM 39.3217 -85.5854 229° Southwest 374 430 24,300 -1,164 Descending FlightAware ADS-B
12:22AM 39.2553 -85.6850 229° Southwest 379 436 22,900 -1,268 Descending Indianapolis Center
12:23AM 39.1911 -85.7819 230° Southwest 363 418 21,700 -1,328 Descending Indianapolis Center
12:24AM 39.1286 -85.8772 230° Southwest 353 406 20,200 -1,475 Descending Indianapolis Center
12:25AM 39.0678 -85.9681 229° Southwest 341 392 18,700 -492 Descending Indianapolis Center
12:30AM 38.7259 -86.2897 216° Southwest 280 322 17,100 -279 Descending FlightAware ADS-B
12:31AM 38.6903 -86.3378 216° Southwest 281 323 17,000 -55 Descending Indianapolis Center
12:32AM 38.6917 -86.4436 271° West 301 346 17,000  Level Indianapolis Center
12:33AM 38.7483 -86.5322 309° West 324 373 17,000 -197 Level Indianapolis Center
12:34AM 38.8317 -86.5294 North 343 395 16,600 -639 Descending Indianapolis Center
12:35AM 38.8203 -86.4303 98° East 311 358 15,700 -942 Descending Indianapolis Center
12:36AM 38.7581 -86.3594 138° Southeast 301 346 14,700 -843 Descending Indianapolis Center
12:37AM 38.7008 -86.2881 136° Southeast 293 337 14,000 -344 Descending Indianapolis Center
12:38AM 38.6325 -86.3031 190° South 275 316 14,000 49 Level Indianapolis Center
12:39AM 38.6539 -86.3950 287° West 296 341 14,100  Climbing Indianapolis Center
12:40AM 38.7175 -86.4719 317° Northwest 313 360 14,000 -49 Descending Indianapolis Center
12:41AM 38.7847 -86.5411 321° Northwest 320 368 14,000  Level Indianapolis Center
12:42AM 38.8353 -86.4536 53° Northeast 318 366 14,000 -397 Level Indianapolis Center
12:43AM 38.7778 -86.3831 136° Southeast 291 335 13,200 -984 Descending Indianapolis Center
12:44AM 38.7206 -86.3122 136° Southeast 287 330 12,000 -590 Descending Indianapolis Center
12:45AM 38.6544 -86.2783 158° South 279 321 12,000 -397 Level Indianapolis Center
12:46AM 38.5875 -86.3014 195° South 267 307 11,200 -893 Descending Indianapolis Center
12:47AM 38.5144 -86.2908 174° South 266 306 10,200 -1,033 Descending Indianapolis Center
12:48AM 38.4414 -86.2783 172° South 265 305 9,100 -541 Descending Indianapolis Center
12:49AM 38.3694 -86.2669 173° South 263 303 9,100 -155 Level Indianapolis Center
12:54AM 38.0625 -86.2102 171° South 177 204 8,200 -144 Descending FlightAware ADS-B
12:55AM 38.0540 -86.1224 73° East 219 252 8,200  Level FlightAware ADS-B
12:57AM 38.0801 -86.0175 72° East 219 252 8,200 -125 Level FlightAware ADS-B
12:58AM 38.0992 -85.9445 71° East 223 257 7,900 -551 Descending FlightAware ADS-B
12:58AM 38.1120 -85.8976 71° East 223 257 7,300 -900 Descending FlightAware ADS-B
12:59AM 38.1225 -85.8732 59° Northeast 220 253 7,000 -900 Descending FlightAware ADS-B
12:59AM 38.1393 -85.8660 21° North 220 253 6,700 -977 Descending FlightAware ADS-B
12:59AM 38.1629 -85.8716 347° North 207 238 6,300 -1,000 Descending FlightAware ADS-B
01:00AM 38.1722 -85.8745 346° North 205 236 6,000 -947 Descending FlightAware ADS-B
01:00AM 38.1978 -85.8826 346° North 205 236 5,700 -933 Descending FlightAware ADS-B
01:00AM 38.2210 -85.8902 345° North 203 234 5,300 -612 Descending FlightAware ADS-B
01:01AM 38.2422 -85.8975 346° North 199 229 5,200 -130 Descending FlightAware ADS-B
01:01AM 38.2618 -85.9040 346° North 198 228 5,200  Level FlightAware ADS-B
01:01AM 38.2693 -85.9063 345° North 201 231 5,200  Level FlightAware ADS-B
01:02AM 38.2961 -85.9153 346° North 204 235 5,200  Level FlightAware ADS-B
01:02AM 38.3125 -85.9207 345° North 204 235 5,200  Level FlightAware ADS-B
01:03AM 38.3412 -85.9302 346° North 205 236 5,200  Level FlightAware ADS-B
01:03AM 38.3648 -85.9379 345° North 206 237 5,200  Level FlightAware ADS-B
01:03AM 38.3852 -85.9448 346° North 205 236 5,200  Level FlightAware ADS-B
01:04AM 38.4034 -85.9507 345° North 206 237 5,200  Level FlightAware ADS-B
01:04AM 38.4310 -85.9601 345° North 206 237 5,200 -146 Level FlightAware ADS-B
01:05AM 38.4728 -85.9717 345° North 205 236 5,000 -159 Descending Indianapolis Center
01:10AM 38.4932 -85.8503 165° South 153 176 4,200 -142 Descending FlightAware ADS-B
01:11AM 38.4827 -85.8469 165° South 153 176 4,200  Level FlightAware ADS-B
01:11AM 38.4709 -85.8430 165° South 154 177 4,200  Level FlightAware ADS-B
01:13AM 38.4022 -85.8199 165° South 151 174 4,200  Level FlightAware ADS-B
01:13AM 38.3865 -85.8147 166° South 152 175 4,200 -383 Level FlightAware ADS-B
01:13AM 38.3700 -85.8092 165° South 156 180 3,900 -818 Descending FlightAware ADS-B
01:14AM 38.3554 -85.8047 166° South 156 180 3,600 -571 Descending FlightAware ADS-B
01:15AM 38.3000 -85.7878 166° South 155 178 2,900 -534 Descending Indianapolis Center
01:16AM 38.2664 -85.7758 164° South 144 166 2,300 -590 Descending Indianapolis Center

Login

Don't have an account? Register now (free) for customized features, flight alerts, and more!